Pamalynn — WDH7532 — position and weather

sailwx.info

Track history (hours):
 
Tides and Currents Weather Stations Pressure Air Temp Water Temp Dewpoint Dewpoint Depression Visibility Wind Speed Wind Dir Waves Ship Positions

Pamalynn

Owner: Springer, Pamela L, Green Cove Springs, FL. More information available from US FCC via Universal Licensing System and Coast Guard Vessel Documentation Center.

Last reported at 2017-Sep-20 22:00 UTC. Time now 2017-Oct-23 06:04 UTC.
Position N 32°01' W 081°03'.
Warning: this ship's position is 32 days out of date.

Length 13 m.

Type: Sailing vessel. MMSI: 367649120.

Date/timePositionNaut miles runAvg speedWind from/ knotsBaromVisibWave heightAir tempDewpointWater temp
2017-Sep-20 22:00N 32°01' W 081°03'0 0.0
2017-Sep-19 16:22N 32°01' W 081°03'0 0.0
2017-Sep-19 15:58N 32°01' W 081°03'0 0.0
2017-Sep-19 15:22N 32°01' W 081°03'1 3.5
2017-Sep-19 15:00N 32°01' W 081°01'3 5.1
2017-Sep-19 14:29N 31°59' W 081°02'3 4.7
2017-Sep-19 13:53N 31°57' W 081°05'1 3.5
2017-Sep-19 13:30N 31°55' W 081°05'5 3.4
2017-Sep-19 12:09N 31°51' W 081°08'1 5.2
2017-Sep-19 12:00N 31°51' W 081°09'2 0.2
2017-Sep-19 02:42N 31°49' W 081°09'  
Track history (hours):
 
Tides and Currents Weather Stations Pressure Air Temp Water Temp Dewpoint Dewpoint Depression Visibility Wind Speed Wind Dir Waves Ship Positions

Pamalynn

Owner: Springer, Pamela L, Green Cove Springs, FL. More information available from US FCC via Universal Licensing System and Coast Guard Vessel Documentation Center.

Last reported at 2017-Sep-20 22:00 UTC. Time now 2017-Oct-23 06:04 UTC.
Position N 32°01' W 081°03'.
Warning: this ship's position is 32 days out of date.

Length 13 m.

Type: Sailing vessel. MMSI: 367649120.

Date/timePositionNaut miles runAvg speedWind from/ knotsBaromVisibWave heightAir tempDewpointWater temp
2017-Sep-20 22:00N 32°01' W 081°03'0 0.0
2017-Sep-19 16:22N 32°01' W 081°03'0 0.0
2017-Sep-19 15:58N 32°01' W 081°03'0 0.0
2017-Sep-19 15:22N 32°01' W 081°03'1 3.5
2017-Sep-19 15:00N 32°01' W 081°01'3 5.1
2017-Sep-19 14:29N 31°59' W 081°02'3 4.7
2017-Sep-19 13:53N 31°57' W 081°05'1 3.5
2017-Sep-19 13:30N 31°55' W 081°05'5 3.4
2017-Sep-19 12:09N 31°51' W 081°08'1 5.2
2017-Sep-19 12:00N 31°51' W 081°09'2 0.2
2017-Sep-19 02:42N 31°49' W 081°09'  

Dump ship's entire track history